Time;durP1;ratioP1;P1;durP2;ratioP2;P2;SDS_P1;SDS_P2;PMS_P1;PMS_P2;Temp;Humidity;BMP_temperature;BMP_pressure;BME280_temperature;BME280_humidity;BME280_pressure;Samples;Min_cycle;Max_cycle;Signal;HPM_P1;HPM_P2
2023/05/02 00:02:17;;;;;;;39.67;19.27;;;10.30;99.90;;;;;;4972629;28;20218;-62
2023/05/02 00:04:47;;;;;;;46.47;20.57;;;10.30;99.90;;;;;;4975093;28;20211;-61
2023/05/02 00:07:15;;;;;;;42.83;19.37;;;10.40;99.90;;;;;;4968670;28;20227;-61
2023/05/02 00:09:44;;;;;;;43.70;19.17;;;10.40;99.90;;;;;;4977958;28;20219;-62
2023/05/02 00:12:12;;;;;;;46.00;20.77;;;10.40;99.90;;;;;;4970361;28;20234;-61
2023/05/02 00:14:40;;;;;;;46.43;21.40;;;10.40;99.90;;;;;;4974168;28;20203;-61
2023/05/02 00:17:09;;;;;;;47.83;20.73;;;10.40;99.90;;;;;;4968589;28;20297;-62
2023/05/02 00:19:39;;;;;;;44.77;20.70;;;10.40;99.90;;;;;;4973325;28;20768;-62
2023/05/02 00:22:08;;;;;;;48.60;21.57;;;10.50;99.90;;;;;;4966270;28;20290;-61
2023/05/02 00:24:37;;;;;;;50.87;22.43;;;10.50;99.90;;;;;;4971346;28;20219;-62
2023/05/02 00:27:05;;;;;;;47.03;21.63;;;10.50;99.90;;;;;;4969536;28;20423;-62
2023/05/02 00:29:33;;;;;;;51.20;22.40;;;10.50;99.90;;;;;;4971654;28;20215;-63
2023/05/02 00:32:02;;;;;;;46.40;21.60;;;10.50;99.90;;;;;;4970218;28;21271;-62
2023/05/02 00:34:30;;;;;;;49.87;23.13;;;10.50;99.90;;;;;;4969068;28;20652;-62
2023/05/02 00:36:58;;;;;;;50.23;22.63;;;10.50;99.90;;;;;;4971170;28;20666;-62
2023/05/02 00:39:28;;;;;;;52.57;24.37;;;10.60;99.90;;;;;;4974152;28;20210;-62
2023/05/02 00:41:57;;;;;;;51.53;23.57;;;10.60;99.90;;;;;;4968912;28;20203;-62
2023/05/02 00:44:25;;;;;;;55.07;23.50;;;10.60;99.90;;;;;;4974365;28;20219;-62
2023/05/02 00:46:54;;;;;;;46.23;22.37;;;10.60;99.90;;;;;;4972367;28;20222;-62
2023/05/02 00:49:23;;;;;;;48.10;23.30;;;10.60;99.90;;;;;;4966168;28;20231;-62
2023/05/02 00:51:51;;;;;;;53.20;24.23;;;10.60;99.90;;;;;;4974213;28;20225;-62
2023/05/02 00:54:19;;;;;;;50.97;24.87;;;10.60;99.90;;;;;;4971902;28;20211;-61
2023/05/02 00:56:49;;;;;;;55.23;24.73;;;10.60;99.90;;;;;;4952276;28;20697;-62
2023/05/02 00:59:17;;;;;;;53.40;24.80;;;10.60;99.90;;;;;;4963976;28;20664;-62
2023/05/02 01:08:14;;;;;;;47.87;23.63;;;10.60;99.90;;;;;;4920953;29;20223;-62
2023/05/02 01:10:52;;;;;;;58.73;25.70;;;10.70;99.90;;;;;;4923542;29;20287;-62
2023/05/02 01:13:25;;;;;;;53.90;24.37;;;10.60;99.90;;;;;;4918337;28;20296;-62
2023/05/02 01:15:56;;;;;;;56.20;25.00;;;10.60;99.90;;;;;;4925965;29;20881;-62
2023/05/02 01:18:27;;;;;;;57.73;25.37;;;10.60;99.90;;;;;;4928579;29;20228;-62
2023/05/02 01:21:00;;;;;;;57.30;25.93;;;10.60;99.90;;;;;;4922776;29;20195;-62
2023/05/02 01:23:35;;;;;;;60.10;26.53;;;10.60;99.90;;;;;;4929556;29;20244;-62
2023/05/02 01:26:15;;;;;;;55.43;26.20;;;10.60;99.90;;;;;;4930728;29;20276;-62
2023/05/02 01:28:59;;;;;;;57.77;26.17;;;10.60;99.90;;;;;;4910144;29;20224;-62
2023/05/02 01:31:31;;;;;;;63.87;26.60;;;10.60;99.90;;;;;;4930950;29;20628;-62
2023/05/02 01:34:00;;;;;;;58.83;25.30;;;10.60;99.90;;;;;;4909846;29;20390;-62
2023/05/02 01:36:31;;;;;;;65.37;27.30;;;10.60;99.90;;;;;;4931441;29;20197;-62
2023/05/02 01:39:01;;;;;;;57.43;26.50;;;10.60;99.90;;;;;;4925561;29;20221;-62
2023/05/02 01:41:32;;;;;;;58.50;25.80;;;10.60;99.90;;;;;;4929704;29;20252;-62
2023/05/02 01:44:03;;;;;;;57.57;26.93;;;10.60;99.90;;;;;;4931850;29;20220;-62
2023/05/02 01:46:34;;;;;;;62.33;27.63;;;10.60;99.90;;;;;;4926660;29;20280;-62
2023/05/02 01:49:06;;;;;;;63.73;28.93;;;10.60;99.90;;;;;;4909898;29;20235;-62
2023/05/02 01:51:37;;;;;;;65.00;29.43;;;10.60;99.90;;;;;;4928164;29;20228;-62
2023/05/02 01:54:08;;;;;;;63.77;30.30;;;10.60;99.90;;;;;;4925136;29;20193;-62
2023/05/02 01:56:38;;;;;;;72.40;29.50;;;10.60;99.90;;;;;;4915010;29;20208;-62
2023/05/02 01:59:10;;;;;;;64.40;30.57;;;10.60;99.90;;;;;;4924694;29;20623;-62
2023/05/02 02:01:40;;;;;;;67.87;30.03;;;10.60;99.90;;;;;;4929455;29;20829;-62
2023/05/02 02:04:11;;;;;;;76.13;31.87;;;10.60;99.90;;;;;;4931407;29;20224;-62
2023/05/02 02:06:44;;;;;;;68.53;30.33;;;10.60;99.90;;;;;;4928499;29;20606;-62
2023/05/02 02:09:13;;;;;;;74.17;32.47;;;10.60;99.90;;;;;;4930118;29;20215;-61
2023/05/02 02:11:47;;;;;;;84.60;33.50;;;10.60;99.90;;;;;;4932234;29;20212;-62
2023/05/02 02:14:19;;;;;;;86.27;34.83;;;10.60;99.90;;;;;;4922950;29;20626;-62
2023/05/02 02:16:51;;;;;;;85.70;35.10;;;10.60;99.90;;;;;;4912159;29;20284;-62
2023/05/02 02:19:20;;;;;;;91.30;35.37;;;10.60;99.90;;;;;;4931709;29;20235;-62
2023/05/02 02:21:50;;;;;;;79.30;33.53;;;10.60;99.90;;;;;;4925578;29;20288;-62
2023/05/02 02:24:21;;;;;;;83.93;35.73;;;10.50;99.90;;;;;;4929038;29;20651;-61
2023/05/02 02:26:50;;;;;;;93.47;37.60;;;10.50;99.90;;;;;;4929981;29;20214;-62
2023/05/02 02:29:20;;;;;;;92.33;36.90;;;10.40;99.90;;;;;;4928921;29;20268;-62
2023/05/02 02:31:48;;;;;;;89.00;36.60;;;10.40;99.90;;;;;;4907967;29;20224;-62
2023/05/02 02:34:16;;;;;;;96.23;38.33;;;10.30;99.90;;;;;;4928793;29;20225;-62
2023/05/02 02:36:47;;;;;;;94.03;36.73;;;10.30;99.90;;;;;;4932986;29;20251;-62
2023/05/02 02:39:24;;;;;;;93.97;36.70;;;10.20;99.90;;;;;;4929145;29;20215;-62
2023/05/02 02:42:07;;;;;;;99.83;36.57;;;10.20;99.90;;;;;;4931664;29;20248;-62
2023/05/02 02:44:46;;;;;;;99.97;38.77;;;10.10;99.90;;;;;;4931646;29;20240;-62
2023/05/02 02:47:23;;;;;;;92.07;37.27;;;10.10;99.90;;;;;;4929697;29;20292;-62
2023/05/02 02:50:04;;;;;;;98.13;35.87;;;10.00;99.90;;;;;;4932122;29;20244;-62
2023/05/02 02:52:40;;;;;;;96.60;37.07;;;9.90;99.90;;;;;;4912831;29;20722;-62
2023/05/02 02:55:15;;;;;;;107.60;37.47;;;9.80;99.90;;;;;;4910162;29;20225;-61
2023/05/02 02:57:53;;;;;;;89.30;34.63;;;9.80;99.90;;;;;;4932110;29;20220;-62
2023/05/02 03:00:27;;;;;;;89.57;36.27;;;9.70;99.90;;;;;;4932732;29;21096;-61
2023/05/02 03:02:56;;;;;;;93.20;35.57;;;9.70;99.90;;;;;;4932060;29;20209;-61
2023/05/02 03:05:25;;;;;;;82.57;34.53;;;9.60;99.90;;;;;;4925536;29;20571;-61
2023/05/02 03:07:53;;;;;;;103.70;38.47;;;9.60;99.90;;;;;;4916152;29;20699;-62
2023/05/02 03:10:23;;;;;;;89.77;35.70;;;9.50;99.90;;;;;;4932065;29;20220;-61
2023/05/02 03:12:54;;;;;;;99.63;35.83;;;9.50;99.90;;;;;;4927413;29;20708;-62
2023/05/02 03:15:40;;;;;;;102.30;37.53;;;9.50;99.90;;;;;;4930861;29;20203;-62
2023/05/02 03:18:08;;;;;;;87.07;34.10;;;9.40;99.90;;;;;;4925597;29;20284;-62
2023/05/02 03:20:37;;;;;;;95.33;35.43;;;9.40;99.90;;;;;;4929383;29;20375;-62
2023/05/02 03:23:05;;;;;;;86.57;33.93;;;9.40;99.90;;;;;;4929246;29;20231;-62
2023/05/02 03:25:33;;;;;;;94.77;35.73;;;9.30;99.90;;;;;;4926322;29;20225;-62
2023/05/02 03:28:01;;;;;;;100.07;36.77;;;9.30;99.90;;;;;;4927870;29;20221;-62
2023/05/02 03:30:31;;;;;;;102.40;35.83;;;9.20;99.90;;;;;;4930892;29;20228;-62
2023/05/02 03:33:00;;;;;;;98.50;35.07;;;9.20;99.90;;;;;;4928864;29;20203;-62
2023/05/02 03:35:28;;;;;;;101.40;37.67;;;9.30;99.90;;;;;;4922400;29;20221;-61
2023/05/02 03:37:57;;;;;;;109.33;37.87;;;9.30;99.90;;;;;;4928362;29;20971;-61
2023/05/02 03:40:26;;;;;;;92.97;35.93;;;9.40;99.90;;;;;;4930782;29;20619;-61
2023/05/02 03:42:55;;;;;;;92.97;34.87;;;9.40;99.90;;;;;;4927969;29;20279;-62
2023/05/02 03:45:23;;;;;;;99.83;35.97;;;9.50;99.90;;;;;;4925874;29;20286;-62
2023/05/02 03:47:53;;;;;;;104.90;36.30;;;9.50;99.90;;;;;;4928175;29;20718;-62
2023/05/02 03:50:21;;;;;;;101.90;36.93;;;9.50;99.90;;;;;;4926920;29;20307;-62
2023/05/02 03:52:49;;;;;;;102.53;36.37;;;9.60;99.90;;;;;;4927375;29;20556;-61
2023/05/02 03:55:17;;;;;;;99.97;34.90;;;9.50;99.90;;;;;;4922813;29;20232;-61
2023/05/02 03:57:46;;;;;;;96.83;35.63;;;9.60;99.90;;;;;;4927430;29;20302;-62
2023/05/02 04:00:14;;;;;;;87.07;34.03;;;9.60;99.90;;;;;;4929521;29;20196;-61
2023/05/02 04:02:43;;;;;;;93.20;35.13;;;9.60;99.90;;;;;;4929714;29;20260;-62
2023/05/02 04:05:12;;;;;;;94.20;34.70;;;9.50;99.90;;;;;;4905213;29;20228;-62
2023/05/02 04:07:41;;;;;;;96.77;35.37;;;9.50;99.90;;;;;;4922034;29;20257;-62
2023/05/02 04:10:15;;;;;;;94.53;35.13;;;9.50;99.90;;;;;;4909850;29;20246;-61
2023/05/02 04:12:43;;;;;;;97.77;35.47;;;9.50;99.90;;;;;;4897238;29;20253;-62
2023/05/02 04:15:12;;;;;;;88.27;32.47;;;9.50;99.90;;;;;;4905258;29;20736;-58
2023/05/02 04:17:40;;;;;;;85.77;32.20;;;9.40;99.90;;;;;;4911294;29;20254;-61
2023/05/02 04:20:09;;;;;;;91.13;34.13;;;9.40;99.90;;;;;;4911497;29;20707;-61
2023/05/02 04:22:39;;;;;;;90.63;32.30;;;9.40;99.90;;;;;;4917360;29;20598;-61
2023/05/02 04:25:08;;;;;;;84.57;32.13;;;9.40;99.90;;;;;;4919519;29;20305;-61
2023/05/02 04:27:37;;;;;;;83.50;30.80;;;9.40;99.90;;;;;;4914744;29;20228;-61
2023/05/02 04:30:06;;;;;;;78.80;29.63;;;9.50;99.90;;;;;;4914025;29;20589;-61
2023/05/02 04:32:35;;;;;;;76.73;28.73;;;9.50;99.90;;;;;;4903442;29;20232;-62
2023/05/02 04:35:04;;;;;;;77.77;29.07;;;9.50;99.90;;;;;;4913571;29;20228;-62
2023/05/02 04:37:32;;;;;;;70.10;26.10;;;9.60;99.90;;;;;;4913638;29;20244;-62
2023/05/02 04:40:02;;;;;;;65.70;26.97;;;9.70;99.90;;;;;;4916234;29;20244;-62
2023/05/02 04:42:30;;;;;;;64.73;26.53;;;9.70;99.90;;;;;;4915041;29;20493;-61
2023/05/02 04:44:58;;;;;;;64.70;26.13;;;9.80;99.90;;;;;;4911620;29;20269;-61
2023/05/02 04:47:26;;;;;;;57.63;25.43;;;9.80;99.90;;;;;;4910272;29;20213;-62
2023/05/02 04:49:57;;;;;;;58.43;25.00;;;9.80;99.90;;;;;;4910250;29;20229;-62
2023/05/02 04:52:26;;;;;;;55.60;24.27;;;9.90;99.90;;;;;;4913612;29;20281;-61
2023/05/02 04:54:54;;;;;;;51.57;23.27;;;9.90;99.90;;;;;;4911147;29;20255;-61
2023/05/02 04:57:23;;;;;;;46.17;21.80;;;10.00;99.90;;;;;;4910196;29;20197;-62
2023/05/02 04:59:52;;;;;;;43.40;20.67;;;10.00;99.90;;;;;;4915673;29;20201;-62
2023/05/02 05:02:20;;;;;;;45.27;21.03;;;10.00;99.90;;;;;;4910961;29;20229;-62
2023/05/02 05:04:48;;;;;;;44.53;20.47;;;10.10;99.90;;;;;;4910490;29;20229;-62
2023/05/02 05:07:16;;;;;;;36.53;19.03;;;10.10;99.90;;;;;;4922753;29;20281;-62
2023/05/02 05:09:44;;;;;;;43.87;19.50;;;10.10;99.90;;;;;;4924117;29;20240;-62
2023/05/02 05:12:12;;;;;;;39.10;19.07;;;10.10;99.90;;;;;;4931488;29;20634;-61
2023/05/02 05:14:43;;;;;;;32.53;17.10;;;10.20;99.90;;;;;;4930013;29;20284;-62
2023/05/02 05:17:11;;;;;;;28.97;15.73;;;10.20;99.90;;;;;;4929486;29;20232;-62
2023/05/02 05:19:39;;;;;;;26.43;14.90;;;10.20;99.90;;;;;;4932878;29;20235;-62
2023/05/02 05:22:08;;;;;;;27.07;15.40;;;10.20;99.90;;;;;;4932926;29;20757;-62
2023/05/02 05:24:38;;;;;;;24.13;13.23;;;10.30;99.90;;;;;;4927854;29;20228;-61
2023/05/02 05:27:06;;;;;;;25.80;12.73;;;10.30;99.90;;;;;;4930359;29;20205;-62
2023/05/02 05:29:34;;;;;;;21.03;12.43;;;10.40;99.90;;;;;;4929693;29;20221;-62
2023/05/02 05:32:04;;;;;;;20.60;11.73;;;10.40;99.90;;;;;;4930212;29;20225;-62
2023/05/02 05:34:33;;;;;;;22.90;12.33;;;10.40;99.90;;;;;;4933235;29;20584;-62
2023/05/02 05:37:01;;;;;;;19.97;10.87;;;10.50;99.90;;;;;;4929675;29;20626;-62
2023/05/02 05:39:29;;;;;;;18.37;10.60;;;10.60;99.90;;;;;;4931790;29;20789;-61
2023/05/02 05:41:57;;;;;;;14.77;9.80;;;10.60;99.90;;;;;;4927822;29;20738;-62
2023/05/02 05:44:26;;;;;;;15.43;8.67;;;10.70;99.90;;;;;;4933053;29;20268;-62
2023/05/02 05:46:54;;;;;;;17.73;8.63;;;10.60;99.90;;;;;;4926224;29;20224;-62
2023/05/02 05:49:24;;;;;;;16.17;9.10;;;10.60;99.90;;;;;;4928343;29;20228;-62
2023/05/02 05:51:52;;;;;;;12.77;8.37;;;10.60;99.90;;;;;;4931665;29;20229;-62
2023/05/02 05:54:21;;;;;;;14.37;7.77;;;10.60;99.90;;;;;;4933088;29;20188;-61
2023/05/02 05:56:49;;;;;;;13.50;8.00;;;10.60;99.90;;;;;;4923630;29;20649;-62
2023/05/02 05:59:17;;;;;;;17.07;7.50;;;10.70;99.90;;;;;;4926284;29;20236;-62
2023/05/02 06:01:45;;;;;;;11.60;7.33;;;10.70;99.90;;;;;;4930139;29;20272;-62
2023/05/02 06:04:13;;;;;;;12.40;6.73;;;10.70;99.90;;;;;;4931963;29;20229;-62
2023/05/02 06:06:43;;;;;;;11.23;6.43;;;10.70;99.90;;;;;;4927392;29;20235;-62
2023/05/02 06:09:11;;;;;;;11.87;7.17;;;10.70;99.90;;;;;;4927655;29;20608;-59
2023/05/02 06:11:40;;;;;;;14.27;6.60;;;10.60;99.90;;;;;;4923221;29;20232;-62
2023/05/02 06:14:08;;;;;;;13.87;6.27;;;10.70;99.90;;;;;;4929732;29;20224;-62
2023/05/02 06:16:36;;;;;;;13.67;6.30;;;10.70;99.90;;;;;;4913431;29;20221;-61
2023/05/02 06:19:05;;;;;;;14.20;6.30;;;10.70;99.90;;;;;;4909584;29;20224;-62
2023/05/02 06:21:33;;;;;;;9.90;6.20;;;10.70;99.90;;;;;;4928366;29;20734;-62
2023/05/02 06:24:03;;;;;;;10.43;6.20;;;10.70;99.90;;;;;;4932462;29;20205;-62
2023/05/02 06:26:31;;;;;;;8.43;5.70;;;10.80;99.90;;;;;;4927977;29;20217;-62
2023/05/02 06:29:00;;;;;;;11.57;6.80;;;10.80;99.90;;;;;;4933557;29;20216;-62
2023/05/02 06:31:28;;;;;;;10.80;6.80;;;10.80;99.90;;;;;;4930790;29;20579;-62
2023/05/02 06:33:56;;;;;;;12.67;6.63;;;10.90;99.90;;;;;;4930169;29;20217;-62
2023/05/02 06:36:24;;;;;;;9.43;7.20;;;10.90;99.90;;;;;;4927549;29;20201;-62
2023/05/02 06:38:53;;;;;;;10.17;8.03;;;10.90;99.90;;;;;;4925984;29;20205;-62
2023/05/02 06:41:22;;;;;;;11.37;8.17;;;10.90;99.90;;;;;;4925706;29;20221;-62
2023/05/02 06:43:50;;;;;;;9.60;7.30;;;11.00;99.90;;;;;;4925351;29;20248;-62
2023/05/02 06:46:19;;;;;;;16.33;7.30;;;11.10;99.90;;;;;;4923001;29;20228;-62
2023/05/02 06:48:48;;;;;;;15.33;7.50;;;11.20;99.90;;;;;;4907149;29;20252;-62
2023/05/02 06:51:16;;;;;;;12.80;6.97;;;11.40;99.90;;;;;;4929111;29;20205;-61
2023/05/02 06:53:44;;;;;;;11.00;7.07;;;11.60;99.90;;;;;;4913860;29;20602;-62
2023/05/02 06:56:12;;;;;;;11.57;7.53;;;11.80;99.90;;;;;;4924770;29;20249;-62
2023/05/02 06:58:42;;;;;;;11.50;7.47;;;12.00;99.90;;;;;;4927002;29;20252;-62
2023/05/02 07:01:11;;;;;;;8.00;6.70;;;11.90;99.90;;;;;;4922343;29;20243;-62
2023/05/02 07:03:39;;;;;;;10.97;6.90;;;12.00;99.90;;;;;;4929590;29;20625;-62
2023/05/02 07:06:08;;;;;;;10.00;6.70;;;12.10;99.90;;;;;;4915765;29;20281;-62
2023/05/02 07:08:36;;;;;;;9.50;6.30;;;12.00;99.90;;;;;;4910376;29;20583;-62
2023/05/02 07:11:05;;;;;;;11.30;5.90;;;12.10;99.90;;;;;;4910224;29;20287;-62
2023/05/02 07:13:33;;;;;;;12.47;5.93;;;12.20;99.90;;;;;;4909022;29;20303;-62
2023/05/02 07:16:03;;;;;;;11.27;6.37;;;12.40;99.90;;;;;;4906768;29;20742;-62
2023/05/02 07:18:31;;;;;;;14.10;5.40;;;12.50;99.90;;;;;;4908803;29;20237;-62
2023/05/02 07:21:00;;;;;;;12.13;6.07;;;12.60;99.90;;;;;;4910766;29;20202;-62
2023/05/02 07:23:28;;;;;;;10.50;5.63;;;12.70;99.90;;;;;;4912689;29;20698;-62
2023/05/02 07:25:57;;;;;;;9.70;5.50;;;13.10;99.90;;;;;;4891755;29;20225;-63
2023/05/02 07:28:25;;;;;;;8.53;5.20;;;13.60;99.90;;;;;;4909240;29;20632;-62
2023/05/02 07:30:53;;;;;;;6.30;5.07;;;13.80;99.90;;;;;;4906284;29;20351;-62
2023/05/02 07:33:23;;;;;;;8.07;5.30;;;14.20;99.90;;;;;;4909117;29;20202;-63
2023/05/02 07:35:52;;;;;;;7.50;5.10;;;14.60;99.90;;;;;;4908260;29;20199;-63
2023/05/02 07:38:20;;;;;;;4.67;3.97;;;14.80;99.90;;;;;;4893547;29;20274;-63
2023/05/02 07:40:49;;;;;;;7.17;4.10;;;15.00;99.90;;;;;;4909280;29;20665;-63
2023/05/02 07:43:17;;;;;;;5.90;4.20;;;15.30;99.90;;;;;;4911143;29;20253;-63
2023/05/02 07:45:45;;;;;;;4.90;4.10;;;15.30;99.90;;;;;;4911372;29;20275;-63
2023/05/02 07:48:14;;;;;;;5.53;3.60;;;15.10;99.90;;;;;;4913225;29;20292;-62
2023/05/02 07:50:44;;;;;;;5.90;3.60;;;15.00;99.90;;;;;;4913070;29;20221;-63
2023/05/02 07:53:12;;;;;;;7.40;3.20;;;14.90;99.90;;;;;;4910666;29;20228;-62
2023/05/02 07:55:40;;;;;;;6.63;3.23;;;14.60;99.90;;;;;;4912400;29;20676;-62
2023/05/02 07:58:09;;;;;;;5.97;3.10;;;14.40;99.90;;;;;;4914847;29;20244;-62
2023/05/02 08:00:38;;;;;;;5.77;3.07;;;14.60;99.90;;;;;;4897346;29;20605;-62
2023/05/02 08:03:07;;;;;;;5.90;3.70;;;14.70;99.90;;;;;;4913667;29;20226;-62
2023/05/02 08:05:35;;;;;;;9.23;3.20;;;14.60;99.90;;;;;;4911873;29;20665;-62
2023/05/02 08:08:06;;;;;;;3.97;3.30;;;14.50;99.90;;;;;;4913925;29;20217;-62
2023/05/02 08:10:34;;;;;;;5.90;3.40;;;14.40;99.90;;;;;;4910906;29;20281;-62
2023/05/02 08:13:02;;;;;;;4.50;3.40;;;14.40;99.90;;;;;;4908744;29;20226;-62
2023/05/02 08:15:30;;;;;;;9.93;3.40;;;14.80;99.90;;;;;;4915126;29;20251;-62
2023/05/02 08:17:59;;;;;;;6.70;3.80;;;15.10;99.90;;;;;;4913955;29;20947;-62
2023/05/02 08:20:27;;;;;;;9.93;3.40;;;15.00;99.90;;;;;;4912209;29;20731;-62
2023/05/02 08:22:56;;;;;;;9.90;3.50;;;15.20;99.90;;;;;;4910151;29;20224;-62
2023/05/02 08:25:29;;;;;;;6.50;3.50;;;15.20;99.90;;;;;;4910708;29;20873;-62
2023/05/02 08:27:58;;;;;;;4.97;3.33;;;15.10;99.90;;;;;;4910189;29;20259;-62
2023/05/02 08:30:26;;;;;;;6.77;3.37;;;15.10;99.90;;;;;;4908999;29;20200;-62
2023/05/02 08:32:54;;;;;;;6.90;3.00;;;15.50;99.90;;;;;;4903030;29;20198;-63
2023/05/02 08:35:23;;;;;;;7.57;3.00;;;16.00;99.90;;;;;;4907050;29;20684;-63
2023/05/02 08:37:51;;;;;;;3.97;2.53;;;16.50;99.90;;;;;;4914658;29;20844;-63
2023/05/02 08:40:22;;;;;;;4.27;3.23;;;16.90;99.90;;;;;;4914007;29;20222;-63
2023/05/02 08:43:11;;;;;;;6.37;2.90;;;17.30;99.90;;;;;;4895706;29;20229;-63
2023/05/02 08:45:42;;;;;;;3.63;2.40;;;17.60;99.90;;;;;;4905521;29;20222;-63
2023/05/02 08:48:12;;;;;;;7.27;2.93;;;18.00;99.90;;;;;;4912426;29;20205;-63
2023/05/02 08:50:44;;;;;;;4.83;2.40;;;18.30;99.90;;;;;;4912115;29;20214;-63
2023/05/02 08:53:13;;;;;;;4.97;2.70;;;18.70;99.90;;;;;;4913538;29;20237;-63
2023/05/02 08:55:45;;;;;;;4.53;3.40;;;19.00;99.90;;;;;;4909693;29;20224;-62
2023/05/02 08:58:14;;;;;;;4.93;3.20;;;19.50;99.90;;;;;;4909688;29;20221;-62
2023/05/02 09:00:48;;;;;;;5.33;3.33;;;19.50;99.90;;;;;;4913708;29;20224;-62
2023/05/02 09:03:27;;;;;;;5.03;2.87;;;19.60;99.90;;;;;;4908951;29;20220;-61
2023/05/02 09:06:05;;;;;;;6.60;3.20;;;19.40;99.90;;;;;;4918945;29;20252;-62
2023/05/02 09:08:34;;;;;;;4.93;2.43;;;19.00;99.90;;;;;;4908396;29;20275;-62
2023/05/02 09:11:06;;;;;;;11.83;3.40;;;18.50;99.90;;;;;;4909825;29;20238;-62
2023/05/02 09:13:38;;;;;;;5.73;3.20;;;18.00;99.90;;;;;;4913366;29;20222;-62
2023/05/02 09:16:08;;;;;;;5.10;3.10;;;18.10;99.90;;;;;;4911246;29;20235;-62
2023/05/02 09:18:39;;;;;;;9.37;3.03;;;18.60;99.90;;;;;;4907896;29;20223;-62
2023/05/02 09:21:10;;;;;;;5.47;2.60;;;18.70;99.90;;;;;;4908695;29;20212;-62
2023/05/02 09:23:41;;;;;;;6.37;2.70;;;19.10;99.90;;;;;;4905999;29;20216;-62
2023/05/02 09:26:14;;;;;;;3.97;2.57;;;19.10;99.90;;;;;;4910301;29;20273;-62
2023/05/02 09:28:45;;;;;;;8.73;3.23;;;18.50;99.90;;;;;;4916169;29;20233;-62
2023/05/02 09:31:15;;;;;;;4.83;2.57;;;18.10;99.90;;;;;;4917658;29;20286;-62
2023/05/02 09:34:08;;;;;;;4.30;2.53;;;18.30;99.90;;;;;;4912743;29;20231;-63
2023/05/02 09:36:40;;;;;;;4.77;2.47;;;19.20;99.90;;;;;;4912406;29;20738;-62
2023/05/02 09:39:12;;;;;;;6.50;2.50;;;20.30;99.90;;;;;;4916084;29;20621;-63
2023/05/02 09:41:41;;;;;;;4.87;2.50;;;21.20;99.90;;;;;;4913045;29;20676;-62
2023/05/02 09:44:13;;;;;;;6.47;2.30;;;21.40;99.90;;;;;;4909734;29;20241;-62
2023/05/02 09:46:42;;;;;;;3.03;2.40;;;20.50;99.90;;;;;;4912755;29;20222;-62
2023/05/02 09:49:11;;;;;;;5.37;2.40;;;20.50;99.90;;;;;;4911715;29;20247;-62
2023/05/02 09:51:40;;;;;;;4.33;2.43;;;20.20;99.90;;;;;;4911066;29;20232;-62
2023/05/02 09:54:08;;;;;;;9.53;2.93;;;19.50;99.90;;;;;;4907315;29;20525;-62
2023/05/02 09:56:52;;;;;;;4.00;2.40;;;19.10;99.90;;;;;;4913829;29;20587;-62
2023/05/02 09:59:22;;;;;;;8.40;2.70;;;19.50;99.90;;;;;;4911533;29;20858;-62
2023/05/02 10:01:57;;;;;;;3.97;2.70;;;19.90;99.90;;;;;;4896901;29;20225;-62
2023/05/02 10:04:27;;;;;;;6.07;2.90;;;19.60;99.90;;;;;;4912152;29;20220;-62
2023/05/02 10:06:56;;;;;;;7.47;3.37;;;18.80;99.90;;;;;;4906278;29;20650;-62
2023/05/02 10:09:26;;;;;;;10.53;3.43;;;18.10;99.90;;;;;;4911749;29;20209;-61
2023/05/02 10:11:56;;;;;;;7.90;3.30;;;18.00;99.90;;;;;;4906870;29;20305;-62
2023/05/02 10:14:27;;;;;;;6.37;3.00;;;19.20;99.90;;;;;;4908543;29;20246;-62
2023/05/02 10:17:01;;;;;;;5.73;3.23;;;20.20;99.90;;;;;;4910508;29;20667;-62
2023/05/02 10:19:33;;;;;;;8.00;3.17;;;20.30;99.90;;;;;;4910124;29;20219;-62
2023/05/02 10:22:02;;;;;;;5.73;3.33;;;20.60;99.90;;;;;;4907850;29;20323;-62
2023/05/02 10:24:32;;;;;;;4.67;2.93;;;20.70;99.90;;;;;;4905204;29;20203;-62
2023/05/02 10:27:02;;;;;;;8.73;3.13;;;19.50;99.90;;;;;;4911249;29;20218;-62
2023/05/02 10:29:32;;;;;;;6.07;3.33;;;18.50;99.90;;;;;;4911526;29;20599;-62
2023/05/02 10:32:03;;;;;;;10.80;3.43;;;18.40;99.90;;;;;;4907147;29;20245;-62
2023/05/02 10:34:33;;;;;;;6.87;3.50;;;19.60;99.90;;;;;;4910448;29;20246;-62
2023/05/02 10:37:01;;;;;;;6.47;3.50;;;20.40;99.90;;;;;;4910829;29;20223;-62
2023/05/02 10:39:30;;;;;;;6.27;3.50;;;21.00;99.90;;;;;;4905872;29;20209;-62
2023/05/02 10:42:01;;;;;;;4.60;3.67;;;21.80;99.90;;;;;;4910075;29;20278;-62
2023/05/02 10:44:37;;;;;;;9.33;4.03;;;22.20;99.90;;;;;;4908397;29;20600;-62
2023/05/02 10:47:21;;;;;;;7.30;4.20;;;22.30;99.90;;;;;;4908550;29;20312;-62
2023/05/02 10:49:51;;;;;;;8.70;4.23;;;21.50;99.90;;;;;;4908285;29;21232;-62
2023/05/02 10:52:27;;;;;;;7.23;4.20;;;21.20;99.90;;;;;;4906691;29;20220;-62
2023/05/02 10:55:18;;;;;;;10.97;4.00;;;21.00;99.90;;;;;;4913410;29;20227;-62
2023/05/02 10:58:21;;;;;;;8.77;3.87;;;20.40;99.90;;;;;;4907341;29;20224;-62
2023/05/02 11:00:51;;;;;;;6.77;3.70;;;19.50;99.90;;;;;;4902553;29;20225;-62
2023/05/02 11:03:53;;;;;;;9.57;4.23;;;19.10;99.90;;;;;;4906378;29;20201;-61
2023/05/02 11:06:21;;;;;;;6.27;4.00;;;19.80;99.90;;;;;;4914169;29;20230;-62
2023/05/02 11:08:50;;;;;;;6.50;3.40;;;20.20;99.90;;;;;;4930295;29;20314;-62
2023/05/02 11:11:41;;;;;;;7.80;3.70;;;20.10;99.90;;;;;;4924820;29;20240;-62
2023/05/02 11:14:11;;;;;;;8.33;3.70;;;20.60;99.90;;;;;;4922897;29;20228;-62
2023/05/02 11:17:07;;;;;;;6.33;4.07;;;20.90;99.90;;;;;;4927936;29;20228;-62
2023/05/02 11:20:25;;;;;;;7.87;4.23;;;21.10;99.90;;;;;;4922958;29;20232;-62
2023/05/02 11:22:56;;;;;;;5.50;4.00;;;20.40;99.90;;;;;;4925293;29;20235;-62
2023/05/02 11:25:36;;;;;;;5.20;3.60;;;19.90;99.90;;;;;;4927699;29;20269;-62
2023/05/02 11:28:06;;;;;;;5.47;4.13;;;19.50;99.90;;;;;;4930189;29;20225;-62
2023/05/02 11:30:47;;;;;;;7.33;4.40;;;19.20;99.90;;;;;;4930599;29;20224;-62
2023/05/02 11:33:18;;;;;;;7.50;4.77;;;19.60;99.90;;;;;;4908611;29;20566;-61
2023/05/02 11:35:48;;;;;;;10.87;6.00;;;19.50;99.90;;;;;;4930354;29;20551;-62
2023/05/02 11:38:19;;;;;;;8.40;4.80;;;19.10;99.90;;;;;;4927999;29;20225;-62
2023/05/02 11:40:56;;;;;;;8.83;4.70;;;18.90;99.90;;;;;;4929862;29;20688;-62
2023/05/02 11:43:26;;;;;;;7.20;4.83;;;18.90;99.90;;;;;;4929164;29;20267;-62
2023/05/02 11:45:59;;;;;;;5.20;4.80;;;19.00;99.90;;;;;;4928338;29;20217;-64
2023/05/02 11:48:30;;;;;;;7.20;4.50;;;19.10;99.90;;;;;;4929016;29;20208;-62
2023/05/02 11:51:03;;;;;;;9.27;4.87;;;19.10;99.90;;;;;;4934549;29;20229;-61
2023/05/02 11:53:32;;;;;;;8.97;4.63;;;19.20;99.90;;;;;;4930999;29;20235;-62
2023/05/02 11:56:04;;;;;;;8.93;4.10;;;19.60;99.90;;;;;;4930020;29;20277;-63
2023/05/02 11:58:33;;;;;;;6.80;3.83;;;19.90;99.90;;;;;;4927455;29;20238;-63
2023/05/02 12:01:13;;;;;;;8.50;4.00;;;20.20;99.90;;;;;;4910862;29;20333;-62
2023/05/02 12:03:43;;;;;;;10.53;3.70;;;20.30;99.90;;;;;;4923527;29;20220;-62
2023/05/02 12:06:14;;;;;;;7.67;3.87;;;20.30;99.90;;;;;;4920772;29;20260;-61
2023/05/02 12:08:44;;;;;;;4.43;3.30;;;20.00;99.90;;;;;;4926352;29;20552;-62
2023/05/02 12:11:14;;;;;;;5.47;3.13;;;20.20;99.90;;;;;;4913666;29;20234;-62
2023/05/02 12:13:47;;;;;;;7.67;3.70;;;19.80;99.90;;;;;;4926669;29;20257;-62
2023/05/02 12:16:16;;;;;;;8.73;3.77;;;19.90;99.90;;;;;;4929557;29;20240;-62
2023/05/02 12:18:48;;;;;;;7.90;3.63;;;19.80;99.90;;;;;;4925039;29;20703;-62
2023/05/02 12:21:16;;;;;;;6.07;4.23;;;19.90;99.90;;;;;;4922483;29;20296;-62
2023/05/02 12:23:45;;;;;;;7.77;4.30;;;19.80;99.90;;;;;;4923726;29;20618;-62
2023/05/02 12:26:17;;;;;;;4.53;3.87;;;19.20;99.90;;;;;;4928608;29;20564;-62
2023/05/02 12:28:50;;;;;;;5.17;3.80;;;19.00;99.90;;;;;;4910724;29;20232;-62
2023/05/02 12:31:18;;;;;;;8.37;4.33;;;19.20;99.90;;;;;;4927483;29;20219;-62
2023/05/02 12:33:51;;;;;;;5.67;3.90;;;19.30;99.90;;;;;;4908345;29;20327;-62
2023/05/02 12:36:19;;;;;;;5.70;4.07;;;19.40;99.90;;;;;;4928582;29;20240;-62
2023/05/02 12:38:53;;;;;;;8.43;4.17;;;19.40;99.90;;;;;;4915394;29;20740;-62
2023/05/02 12:41:32;;;;;;;8.50;4.30;;;19.30;99.90;;;;;;4924982;29;20635;-62
2023/05/02 12:44:00;;;;;;;8.30;4.33;;;19.10;99.90;;;;;;4923700;29;20232;-62
2023/05/02 12:46:30;;;;;;;5.53;4.23;;;19.10;99.90;;;;;;4924510;29;20316;-62
2023/05/02 12:49:05;;;;;;;5.20;4.17;;;19.20;99.90;;;;;;4923412;29;20248;-62
2023/05/02 12:51:34;;;;;;;9.50;4.57;;;19.10;99.90;;;;;;4934202;29;20224;-62
2023/05/02 12:54:03;;;;;;;4.50;4.07;;;19.20;99.90;;;;;;4927727;29;20205;-62
2023/05/02 12:56:38;;;;;;;4.43;3.50;;;19.10;99.90;;;;;;4920077;29;20221;-62
2023/05/02 12:59:06;;;;;;;6.93;4.00;;;18.80;99.90;;;;;;4922122;29;20241;-62
2023/05/02 13:01:35;;;;;;;8.60;4.03;;;18.60;99.90;;;;;;4934208;29;20640;-62
2023/05/02 13:04:05;;;;;;;4.67;4.10;;;18.50;99.90;;;;;;4932246;29;20237;-62